This is the latest recevied weather packets stored in our database for station/object IR1ZYZ-3. If no packets are shown the sender has not sent any weather packets the latest 10 day(s).
| Time | Temp. | Humidity | Pressure | Rain* | Wind** | Luminosity | Snow |
|---|---|---|---|---|---|---|---|
| 1777662088 | 13.89° C | 85% | 1025.3 hPa | - | - | - | - |
| 1777661483 | 13.89° C | 83% | 1025.2 hPa | - | - | - | - |
| 1777660878 | 13.89° C | 81% | 1025.2 hPa | - | - | - | - |
| 1777660273 | 14.44° C | 74% | 1025 hPa | - | - | - | - |
| 1777659668 | 14.44° C | 72% | 1025 hPa | - | - | - | - |
| 1777659064 | 15.56° C | 67% | 1024.6 hPa | - | - | - | - |
| 1777658459 | 16.67° C | 63% | 1024.5 hPa | - | - | - | - |
| 1777657855 | 16.11° C | 66% | 1024.5 hPa | - | - | - | - |
| 1777657250 | 17.22° C | 58% | 1024.2 hPa | - | - | - | - |
| 1777656646 | 17.78° C | 60% | 1024.2 hPa | - | - | - | - |
| 1777656041 | 17.78° C | 58% | 1024.3 hPa | - | - | - | - |
| 1777655436 | 18.33° C | 54% | 1024.1 hPa | - | - | - | - |
| 1777654832 | 18.33° C | 56% | 1024.2 hPa | - | - | - | - |
| 1777654227 | 18.33° C | 53% | 1024 hPa | - | - | - | - |
| 1777653623 | 21.11° C | 47% | 1023.7 hPa | - | - | - | - |
| 1777653019 | 22.78° C | 45% | 1023.5 hPa | - | - | - | - |
| 1777652414 | 25° C | 42% | 1023.4 hPa | - | - | - | - |
| 1777651809 | 25° C | 39% | 1023.5 hPa | - | - | - | - |
| 1777651205 | 25.56° C | 39% | 1023.5 hPa | - | - | - | - |
| 1777650600 | 25.56° C | 37% | 1023.5 hPa | - | - | - | - |
| 1777649995 | 26.11° C | 34% | 1023.6 hPa | - | - | - | - |
| 1777649390 | 26.67° C | 36% | 1023.4 hPa | - | - | - | - |
| 1777648785 | 22.78° C | 45% | 1023.9 hPa | - | - | - | - |
| 1777648179 | 23.89° C | 45% | 1023.9 hPa | - | - | - | - |
| 1777647574 | 25° C | 42% | 1023.7 hPa | - | - | - | - |
* Rain since midnight (hover to see other rain measurements)
** Current wind speed in m/s (hover to see current wind gust speed)